createdAt,value
2023-04-20T00:01:58.898Z,0.63
2023-04-20T00:04:25.695Z,1.00
2023-04-20T00:06:53.424Z,1.25
2023-04-20T00:09:20.276Z,0.80
2023-04-20T00:11:47.121Z,0.75
2023-04-20T00:14:13.744Z,0.87
2023-04-20T00:16:40.333Z,1.35
2023-04-20T00:19:08.198Z,0.95
2023-04-20T00:21:35.716Z,1.00
2023-04-20T00:24:02.351Z,1.50
2023-04-20T00:26:29.055Z,1.17
2023-04-20T00:28:55.826Z,1.45
2023-04-20T00:34:17.522Z,1.20
2023-04-20T00:36:44.551Z,1.75
2023-04-20T00:39:11.354Z,1.17
2023-04-20T00:41:38.222Z,1.80
2023-04-20T00:44:08.077Z,1.33
2023-04-20T00:46:34.759Z,1.70
2023-04-20T00:49:01.575Z,1.38
2023-04-20T00:51:28.783Z,1.43
2023-04-20T00:53:55.368Z,1.67
2023-04-20T00:56:22.140Z,1.27
2023-04-20T00:58:48.731Z,1.45
2023-04-20T01:01:19.810Z,1.70
2023-04-20T01:03:46.887Z,1.70
2023-04-20T01:06:14.554Z,1.67
2023-04-20T01:08:52.199Z,1.38
2023-04-20T01:11:19.044Z,1.25
2023-04-20T01:13:46.020Z,1.20
2023-04-20T01:16:13.471Z,1.10
2023-04-20T01:18:45.254Z,1.40
2023-04-20T01:21:15.363Z,1.30
2023-04-20T01:23:42.517Z,1.05
2023-04-20T01:26:10.542Z,1.05
2023-04-20T01:28:37.400Z,1.17
2023-04-20T01:31:08.878Z,1.60
2023-04-20T01:33:36.808Z,1.00
2023-04-20T01:36:05.091Z,0.82
2023-04-20T01:38:34.778Z,1.10
2023-04-20T01:41:03.007Z,0.83
2023-04-20T01:43:29.618Z,1.20
2023-04-20T01:45:58.745Z,1.15
2023-04-20T01:48:25.390Z,1.10
2023-04-20T01:50:52.656Z,1.38
2023-04-20T01:53:22.208Z,1.20
2023-04-20T01:55:49.772Z,1.02
2023-04-20T01:58:16.376Z,1.15
2023-04-20T02:00:43.294Z,0.90
2023-04-20T02:03:10.162Z,1.30
2023-04-20T02:05:36.718Z,1.50
2023-04-20T02:08:03.373Z,1.10
2023-04-20T02:10:30.241Z,1.27
2023-04-20T02:12:56.820Z,1.40
2023-04-20T02:15:23.370Z,1.35
2023-04-20T02:17:52.333Z,1.00
2023-04-20T02:20:22.761Z,0.90
2023-04-20T02:22:49.366Z,1.23
2023-04-20T02:25:15.962Z,1.15
2023-04-20T02:27:42.675Z,1.10
2023-04-20T02:30:10.592Z,1.63
2023-04-20T02:32:37.477Z,1.20
2023-04-20T02:35:04.821Z,1.38
2023-04-20T02:37:31.875Z,1.10
2023-04-20T02:39:58.452Z,1.02
2023-04-20T02:42:25.248Z,0.90
2023-04-20T02:44:52.838Z,1.40
2023-04-20T02:47:19.925Z,1.10
2023-04-20T02:49:47.779Z,1.15
2023-04-20T02:52:15.003Z,2.17
2023-04-20T02:54:41.671Z,1.20
2023-04-20T02:57:08.424Z,1.30
2023-04-20T02:59:35.156Z,1.40
2023-04-20T03:02:01.801Z,1.17
2023-04-20T03:04:28.727Z,1.52
2023-04-20T03:06:55.632Z,1.03
2023-04-20T03:09:22.171Z,1.20
2023-04-20T03:11:49.422Z,1.52
2023-04-20T03:14:16.515Z,1.40
2023-04-20T03:16:43.757Z,0.93
2023-04-20T03:19:10.665Z,1.37
2023-04-20T03:21:37.287Z,2.08
2023-04-20T03:24:04.588Z,1.60
2023-04-20T03:26:31.301Z,1.25
2023-04-20T03:28:57.831Z,1.08
2023-04-20T03:31:24.475Z,1.20
2023-04-20T03:33:51.127Z,0.85
2023-04-20T03:36:17.976Z,1.25
2023-04-20T03:38:44.610Z,1.80
2023-04-20T03:41:11.182Z,1.25
2023-04-20T03:43:37.985Z,1.30
2023-04-20T03:46:04.646Z,0.90
2023-04-20T03:48:32.347Z,1.15
2023-04-20T03:50:59.052Z,1.05
2023-04-20T03:53:26.358Z,1.10
2023-04-20T03:55:52.938Z,1.20
2023-04-20T03:58:19.529Z,0.90
2023-04-20T04:00:46.547Z,1.48
2023-04-20T04:03:13.363Z,1.10
2023-04-20T04:05:41.336Z,0.98
2023-04-20T04:08:08.093Z,1.27
2023-04-20T04:10:34.896Z,0.90
2023-04-20T04:13:01.639Z,1.00
2023-04-20T04:15:28.189Z,0.88
2023-04-20T04:17:55.648Z,1.13
2023-04-20T04:20:22.349Z,1.33
2023-04-20T04:22:49.072Z,1.10
2023-04-20T04:25:15.624Z,1.52
2023-04-20T04:27:42.211Z,0.90
2023-04-20T04:30:11.409Z,1.30
2023-04-20T04:32:38.257Z,1.67
2023-04-20T04:35:05.666Z,1.10
2023-04-20T04:37:32.287Z,1.67
2023-04-20T04:39:59.052Z,1.55
2023-04-20T04:42:29.013Z,1.25
2023-04-20T04:44:56.398Z,1.00
2023-04-20T04:47:23.744Z,1.08
2023-04-20T04:49:50.631Z,1.40
2023-04-20T04:52:17.501Z,0.68
2023-04-20T04:54:44.260Z,1.05
2023-04-20T04:57:11.305Z,0.50
2023-04-20T04:59:38.033Z,1.30
2023-04-20T05:02:04.896Z,1.00
2023-04-20T05:04:31.721Z,0.85
2023-04-20T05:06:58.489Z,1.20
2023-04-20T05:09:25.647Z,0.70
2023-04-20T05:11:52.278Z,0.60
2023-04-20T05:14:18.978Z,0.95
2023-04-20T05:16:46.553Z,0.88
2023-04-20T05:19:13.243Z,0.88
2023-04-20T05:21:39.938Z,1.00
2023-04-20T05:24:07.397Z,1.05
2023-04-20T05:26:34.020Z,1.20
2023-04-20T05:29:00.685Z,0.90
2023-04-20T05:31:27.437Z,1.20
2023-04-20T05:33:54.057Z,1.10
2023-04-20T05:36:20.871Z,1.08
2023-04-20T05:38:47.623Z,0.98
2023-04-20T05:41:14.253Z,0.90
2023-04-20T05:43:41.078Z,0.90
2023-04-20T05:46:08.191Z,0.93
2023-04-20T05:48:34.996Z,1.25
2023-04-20T05:51:01.566Z,1.10
2023-04-20T05:53:28.453Z,2.30
2023-04-20T05:55:55.030Z,1.00
2023-04-20T05:58:21.661Z,0.90
2023-04-20T06:00:48.311Z,0.95
2023-04-20T06:03:14.918Z,1.00
2023-04-20T06:05:41.811Z,1.00
2023-04-20T06:08:08.752Z,1.85
2023-04-20T06:10:35.626Z,1.27
2023-04-20T06:13:02.261Z,1.10
2023-04-20T06:15:28.825Z,0.93
2023-04-20T06:17:55.776Z,1.30
2023-04-20T06:20:22.833Z,1.00
2023-04-20T06:22:49.600Z,1.10
2023-04-20T06:25:17.800Z,0.80
2023-04-20T06:27:44.619Z,0.98
2023-04-20T06:30:11.659Z,0.75
2023-04-20T06:32:38.501Z,1.10
2023-04-20T06:35:06.627Z,1.67
2023-04-20T06:37:33.551Z,1.10
2023-04-20T06:40:00.119Z,1.20
2023-04-20T06:42:27.288Z,1.02
2023-04-20T06:44:54.022Z,0.90
2023-04-20T06:47:20.852Z,0.60
2023-04-20T06:49:47.587Z,1.10
2023-04-20T06:52:14.221Z,0.80
2023-04-20T06:54:40.968Z,1.25
2023-04-20T06:57:07.632Z,0.80
2023-04-20T06:59:34.265Z,1.30
2023-04-20T07:05:02.124Z,1.42
2023-04-20T07:07:29.045Z,1.00
2023-04-20T07:09:55.865Z,1.15
2023-04-20T07:12:22.407Z,1.00
2023-04-20T07:14:48.978Z,1.00
2023-04-20T07:17:15.675Z,1.00
2023-04-20T07:19:42.300Z,1.20
2023-04-20T07:22:08.808Z,1.10
2023-04-20T07:24:35.621Z,1.17
2023-04-20T07:27:02.749Z,1.38
2023-04-20T07:29:29.573Z,1.23
2023-04-20T07:31:56.350Z,1.05
2023-04-20T07:34:23.595Z,1.45
2023-04-20T07:36:51.452Z,1.10
2023-04-20T07:39:19.507Z,1.40
2023-04-20T07:41:46.585Z,0.98
2023-04-20T07:44:16.850Z,1.30
2023-04-20T07:46:43.542Z,1.58
2023-04-20T07:49:10.466Z,1.00
2023-04-20T07:54:32.316Z,1.20
2023-04-20T07:56:59.578Z,1.05
2023-04-20T07:59:26.639Z,1.40
2023-04-20T08:01:56.240Z,1.40
2023-04-20T08:04:23.220Z,1.10
2023-04-20T08:06:50.241Z,1.23
2023-04-20T08:09:17.055Z,1.40
2023-04-20T08:11:46.492Z,1.10
2023-04-20T08:14:13.988Z,1.60
2023-04-20T08:16:40.792Z,1.33
2023-04-20T08:19:10.300Z,1.50
2023-04-20T08:21:40.574Z,1.40
2023-04-20T08:24:08.672Z,1.40
2023-04-20T08:26:36.765Z,1.20
2023-04-20T08:29:04.406Z,1.25
2023-04-20T08:31:32.000Z,1.33
2023-04-20T08:33:58.984Z,1.50
2023-04-20T08:36:28.056Z,1.40
2023-04-20T08:38:58.573Z,1.40
2023-04-20T08:41:26.557Z,1.70
2023-04-20T08:43:53.426Z,1.52
2023-04-20T08:46:20.764Z,1.40
2023-04-20T08:48:48.684Z,1.27
2023-04-20T08:51:17.252Z,1.33
2023-04-20T08:54:28.280Z,1.40
2023-04-20T08:56:54.903Z,1.35
2023-04-20T08:59:21.432Z,1.48
2023-04-20T09:01:48.425Z,1.65
2023-04-20T09:04:29.612Z,1.40
2023-04-20T09:06:56.738Z,1.20
2023-04-20T09:09:25.720Z,1.75
2023-04-20T09:12:02.332Z,2.20
2023-04-20T09:14:29.489Z,1.67
2023-04-20T09:17:02.250Z,1.30
2023-04-20T09:19:30.684Z,1.98
2023-04-20T09:22:04.191Z,1.70
2023-04-20T09:24:33.270Z,2.10
2023-04-20T09:27:04.485Z,1.42
2023-04-20T09:29:32.066Z,1.80
2023-04-20T09:31:58.893Z,1.85
2023-04-20T09:34:25.842Z,1.90
2023-04-20T09:36:55.564Z,2.03
2023-04-20T09:39:24.069Z,1.70
2023-04-20T09:41:52.311Z,1.70
2023-04-20T09:44:19.741Z,2.20
2023-04-20T09:46:47.113Z,1.90
2023-04-20T09:49:15.170Z,2.00
2023-04-20T09:51:46.669Z,2.22
2023-04-20T09:54:14.617Z,1.50
2023-04-20T09:56:41.344Z,1.40
2023-04-20T09:59:08.414Z,2.17
2023-04-20T10:01:37.442Z,1.67
2023-04-20T10:04:09.042Z,1.80
2023-04-20T10:06:36.836Z,1.97
2023-04-20T10:09:08.751Z,1.80
2023-04-20T10:11:52.786Z,2.22
2023-04-20T10:14:25.192Z,1.80
2023-04-20T10:17:11.728Z,2.25
2023-04-20T10:19:39.931Z,2.00
2023-04-20T10:22:07.565Z,2.10
2023-04-20T10:24:34.221Z,1.80
2023-04-20T10:27:00.917Z,1.98
2023-04-20T10:29:28.896Z,2.03
2023-04-20T10:31:56.108Z,2.10
2023-04-20T10:34:33.638Z,2.05
2023-04-20T10:37:10.986Z,2.78
2023-04-20T10:39:45.140Z,2.35
2023-04-20T10:42:13.174Z,2.00
2023-04-20T10:44:50.231Z,2.00
2023-04-20T10:47:18.500Z,2.28
2023-04-20T10:49:45.305Z,1.90
2023-04-20T10:52:14.008Z,2.78
2023-04-20T10:54:40.729Z,1.58
2023-04-20T10:57:07.977Z,2.20
2023-04-20T10:59:37.361Z,1.77
2023-04-20T11:02:08.199Z,1.50
2023-04-20T11:04:36.065Z,1.67
2023-04-20T11:07:10.576Z,1.60
2023-04-20T11:09:40.869Z,1.67
2023-04-20T11:12:15.006Z,1.50
2023-04-20T11:14:54.551Z,2.20
2023-04-20T11:17:32.639Z,0.98
2023-04-20T11:20:17.002Z,1.52
2023-04-20T11:22:44.229Z,1.43
2023-04-20T11:25:14.651Z,1.73
2023-04-20T11:27:42.490Z,1.33
2023-04-20T11:30:10.231Z,1.90
2023-04-20T11:32:38.480Z,1.38
2023-04-20T11:35:08.627Z,1.23
2023-04-20T11:37:47.664Z,1.45
2023-04-20T11:40:15.316Z,1.38
2023-04-20T11:42:42.163Z,1.83
2023-04-20T11:45:09.559Z,1.50
2023-04-20T11:47:36.355Z,1.30
2023-04-20T11:50:03.298Z,2.00
2023-04-20T11:52:30.041Z,1.60
2023-04-20T11:54:56.839Z,1.90
2023-04-20T11:57:25.873Z,1.52
2023-04-20T11:59:52.639Z,2.67
2023-04-20T12:02:19.279Z,2.10
2023-04-20T12:04:46.773Z,1.58
2023-04-20T12:07:13.666Z,1.80
2023-04-20T12:09:40.578Z,1.75
2023-04-20T12:12:09.087Z,1.60
2023-04-20T12:14:35.912Z,1.80
2023-04-20T12:17:05.756Z,1.88
2023-04-20T12:19:32.786Z,1.85
2023-04-20T12:21:59.917Z,2.20
2023-04-20T12:24:26.631Z,1.30
2023-04-20T12:26:53.221Z,1.88
2023-04-20T12:29:19.930Z,1.95
2023-04-20T12:31:46.961Z,1.92
2023-04-20T12:34:13.709Z,1.73
2023-04-20T12:36:40.407Z,1.73
2023-04-20T12:39:07.273Z,1.90
2023-04-20T12:44:28.703Z,1.92
2023-04-20T12:46:55.797Z,1.77
2023-04-20T12:49:22.841Z,1.63
2023-04-20T12:51:49.863Z,1.55
2023-04-20T12:54:16.722Z,1.88
2023-04-20T12:56:43.573Z,1.65
2023-04-20T12:59:11.194Z,1.55
2023-04-20T13:01:37.817Z,1.80
2023-04-20T13:04:04.965Z,1.42
2023-04-20T13:06:32.835Z,1.60
2023-04-20T13:09:01.105Z,1.63
2023-04-20T13:11:27.917Z,1.90
2023-04-20T13:13:54.578Z,1.50
2023-04-20T13:16:28.095Z,2.10
2023-04-20T13:18:55.014Z,2.40
2023-04-20T13:21:21.603Z,2.22
2023-04-20T13:23:48.220Z,2.33
2023-04-20T13:26:14.990Z,1.80
2023-04-20T13:28:41.627Z,1.80
2023-04-20T13:31:08.636Z,1.83
2023-04-20T13:33:35.618Z,1.85
2023-04-20T13:36:08.353Z,2.45
2023-04-20T13:38:35.613Z,2.27
2023-04-20T13:41:02.559Z,2.22
2023-04-20T13:43:29.343Z,2.33
2023-04-20T13:45:59.009Z,2.47
2023-04-20T13:48:25.910Z,1.92
2023-04-20T13:53:48.855Z,1.55
2023-04-20T13:56:16.793Z,2.30
2023-04-20T13:58:43.475Z,2.00
2023-04-20T14:01:16.347Z,1.90
2023-04-20T14:03:43.843Z,1.97
2023-04-20T14:06:11.013Z,2.13
2023-04-20T14:08:37.779Z,1.90
2023-04-20T14:11:07.787Z,2.35
2023-04-20T14:13:34.420Z,2.03
2023-04-20T14:16:01.368Z,2.30
2023-04-20T14:18:28.013Z,1.88
2023-04-20T14:20:54.675Z,2.72
2023-04-20T14:23:21.492Z,5.43
2023-04-20T14:28:45.876Z,2.53
2023-04-20T14:34:07.410Z,2.33
2023-04-20T14:36:34.228Z,2.10
2023-04-20T14:39:01.215Z,2.25
2023-04-20T14:41:28.242Z,3.00
2023-04-20T14:43:54.921Z,3.70
2023-04-20T14:46:21.567Z,3.05
2023-04-20T14:48:48.691Z,2.42
2023-04-20T14:51:16.374Z,2.75
2023-04-20T14:53:42.996Z,2.13
2023-04-20T14:56:09.886Z,2.88
2023-04-20T14:58:37.601Z,2.88
2023-04-20T15:01:05.110Z,3.08
2023-04-20T15:03:32.242Z,3.05
2023-04-20T15:06:03.667Z,3.30
2023-04-20T15:08:30.764Z,2.97
2023-04-20T15:10:57.638Z,2.65
2023-04-20T15:13:24.996Z,2.40
2023-04-20T15:15:54.759Z,2.95
2023-04-20T15:18:22.126Z,2.97
2023-04-20T15:23:45.445Z,3.80
2023-04-20T15:26:12.124Z,2.30
2023-04-20T15:28:38.681Z,3.50
2023-04-20T15:31:08.172Z,2.90
2023-04-20T15:33:35.208Z,3.47
2023-04-20T15:36:02.107Z,3.17
2023-04-20T15:38:28.935Z,2.50
2023-04-20T15:40:55.731Z,3.40
2023-04-20T15:43:22.483Z,2.90
2023-04-20T15:45:49.984Z,3.13
2023-04-20T15:48:18.086Z,3.33
2023-04-20T15:50:44.861Z,3.50
2023-04-20T15:53:12.398Z,2.72
2023-04-20T15:55:44.143Z,3.30
2023-04-20T15:58:10.831Z,3.22
2023-04-20T16:00:37.655Z,3.25
2023-04-20T16:03:04.604Z,3.30
2023-04-20T16:05:32.847Z,3.60
2023-04-20T16:08:00.167Z,3.23
2023-04-20T16:13:59.835Z,3.15
2023-04-20T16:16:26.916Z,2.47
2023-04-20T16:18:55.109Z,2.42
2023-04-20T16:21:22.455Z,2.50
2023-04-20T16:23:55.025Z,2.33
2023-04-20T16:26:21.820Z,2.50
2023-04-20T16:28:48.393Z,2.75
2023-04-20T16:31:15.070Z,2.83
2023-04-20T16:33:42.172Z,3.20
2023-04-20T16:36:09.374Z,3.42
2023-04-20T16:38:36.074Z,3.22
2023-04-20T16:41:02.779Z,2.85
2023-04-20T16:43:29.784Z,3.22
2023-04-20T16:45:56.631Z,2.90
2023-04-20T16:48:23.344Z,2.28
2023-04-20T16:50:50.057Z,3.15
2023-04-20T16:53:16.797Z,2.40
2023-04-20T16:55:44.088Z,3.00
2023-04-20T16:58:10.720Z,2.37
2023-04-20T17:00:37.342Z,3.35
2023-04-20T17:03:10.530Z,3.10
2023-04-20T17:05:46.169Z,3.13
2023-04-20T17:08:12.817Z,2.40
2023-04-20T17:10:39.623Z,2.60
2023-04-20T17:13:06.445Z,2.85
2023-04-20T17:15:33.478Z,3.38
2023-04-20T17:18:00.436Z,3.10
2023-04-20T17:20:27.104Z,2.80
2023-04-20T17:22:53.807Z,3.00
2023-04-20T17:25:21.955Z,3.03
2023-04-20T17:27:48.447Z,2.92
2023-04-20T17:30:15.512Z,2.92
2023-04-20T17:32:42.201Z,2.88
2023-04-20T17:35:09.073Z,2.80
2023-04-20T17:37:36.634Z,2.67
2023-04-20T17:40:05.343Z,3.03
2023-04-20T17:42:32.310Z,2.90
2023-04-20T17:44:59.062Z,3.10
2023-04-20T17:47:26.028Z,2.60
2023-04-20T17:49:52.649Z,3.83
2023-04-20T17:52:20.074Z,3.20
2023-04-20T17:54:47.165Z,3.15
2023-04-20T17:57:14.315Z,2.47
2023-04-20T17:59:42.422Z,2.87
2023-04-20T18:02:09.434Z,3.28
2023-04-20T18:04:36.615Z,2.83
2023-04-20T18:07:03.844Z,2.65
2023-04-20T18:09:30.590Z,3.17
2023-04-20T18:11:57.609Z,2.50
2023-04-20T18:14:24.187Z,3.13
2023-04-20T18:16:52.530Z,2.80
2023-04-20T18:19:19.469Z,2.60
2023-04-20T18:21:46.599Z,2.83
2023-04-20T18:24:13.225Z,2.70
2023-04-20T18:26:39.872Z,2.95
2023-04-20T18:29:06.480Z,2.85
2023-04-20T18:31:33.770Z,3.20
2023-04-20T18:34:00.513Z,2.97
2023-04-20T18:36:33.489Z,3.00
2023-04-20T18:39:00.047Z,3.30
2023-04-20T18:41:27.824Z,3.25
2023-04-20T18:43:55.664Z,2.80
2023-04-20T18:49:16.957Z,3.00
2023-04-20T18:51:43.624Z,3.20
2023-04-20T18:54:10.405Z,3.22
2023-04-20T18:56:38.631Z,3.42
2023-04-20T18:59:06.105Z,3.28
2023-04-20T19:01:33.331Z,3.13
2023-04-20T19:04:00.373Z,2.97
2023-04-20T19:06:28.082Z,3.28
2023-04-20T19:08:56.116Z,2.67
2023-04-20T19:11:23.317Z,2.55
2023-04-20T19:13:50.052Z,2.90
2023-04-20T19:16:17.021Z,2.47
2023-04-20T19:18:44.273Z,2.72
2023-04-20T19:21:11.066Z,2.80
2023-04-20T19:23:37.866Z,3.58
2023-04-20T19:26:04.912Z,3.13
2023-04-20T19:28:31.571Z,2.20
2023-04-20T19:33:54.692Z,3.30
2023-04-20T19:36:23.329Z,3.88
2023-04-20T19:38:50.076Z,2.87
2023-04-20T19:41:16.862Z,4.10
2023-04-20T19:43:43.466Z,4.00
2023-04-20T19:46:10.174Z,3.22
2023-04-20T19:48:36.911Z,3.15
2023-04-20T19:51:04.251Z,3.70
2023-04-20T19:53:31.815Z,3.13
2023-04-20T19:55:58.921Z,3.30
2023-04-20T19:58:26.885Z,3.50
2023-04-20T20:00:53.588Z,4.03
2023-04-20T20:03:20.324Z,3.10
2023-04-20T20:06:04.187Z,3.47
2023-04-20T20:08:48.298Z,3.40
2023-04-20T20:11:25.865Z,3.67
2023-04-20T20:13:52.820Z,4.00
2023-04-20T20:16:19.567Z,4.10
2023-04-20T20:18:48.283Z,4.13
2023-04-20T20:21:14.965Z,4.30
2023-04-20T20:23:41.454Z,4.63
2023-04-20T20:29:02.104Z,3.50
2023-04-20T20:31:28.885Z,4.10
2023-04-20T20:33:55.640Z,4.20
2023-04-20T20:36:22.510Z,4.30
2023-04-20T20:38:49.134Z,5.43
2023-04-20T20:41:16.742Z,4.80
2023-04-20T20:43:47.198Z,4.95
2023-04-20T20:46:14.183Z,4.60
2023-04-20T20:48:40.753Z,4.90
2023-04-20T20:51:08.013Z,4.88
2023-04-20T20:53:35.156Z,4.77
2023-04-20T20:58:55.905Z,4.63
2023-04-20T21:04:17.349Z,4.50
2023-04-20T21:06:43.990Z,3.73
2023-04-20T21:09:10.703Z,4.63
2023-04-20T21:11:37.346Z,4.53
2023-04-20T21:14:04.144Z,4.30
2023-04-20T21:16:32.110Z,5.15
2023-04-20T21:18:58.654Z,4.27
2023-04-20T21:21:25.392Z,4.65
2023-04-20T21:23:51.968Z,5.07
2023-04-20T21:26:18.990Z,5.22
2023-04-20T21:28:45.676Z,5.20
2023-04-20T21:31:12.353Z,4.23
2023-04-20T21:33:39.078Z,4.90
2023-04-20T21:36:06.206Z,4.65
2023-04-20T21:38:32.713Z,4.88
2023-04-20T21:40:59.445Z,5.00
2023-04-20T21:43:26.097Z,5.10
2023-04-20T21:45:52.969Z,5.10
2023-04-20T21:48:19.592Z,5.13
2023-04-20T21:53:40.031Z,4.60
2023-04-20T21:56:06.538Z,5.17
2023-04-20T21:58:33.300Z,6.55
2023-04-20T22:00:59.876Z,4.53
2023-04-20T22:03:27.611Z,5.15
2023-04-20T22:08:48.759Z,4.73
2023-04-20T22:11:15.725Z,5.57
2023-04-20T22:13:42.306Z,4.82
2023-04-20T22:16:09.811Z,5.28
2023-04-20T22:18:36.317Z,4.93
2023-04-20T22:21:03.553Z,5.30
2023-04-20T22:23:30.070Z,4.95
2023-04-20T22:25:56.701Z,4.93
2023-04-20T22:28:23.298Z,4.75
2023-04-20T22:30:49.959Z,5.70
2023-04-20T22:33:16.681Z,4.93
2023-04-20T22:35:43.312Z,6.32
2023-04-20T22:38:09.850Z,6.15
2023-04-20T22:40:36.387Z,5.57
2023-04-20T22:43:03.175Z,5.10
2023-04-20T22:45:31.128Z,4.93
2023-04-20T22:47:57.806Z,5.40
2023-04-20T22:50:24.628Z,5.82
2023-04-20T22:52:51.386Z,5.05
2023-04-20T22:55:18.374Z,5.85
2023-04-20T22:57:45.022Z,6.00
2023-04-20T23:00:13.954Z,5.20
2023-04-20T23:02:41.383Z,5.32
2023-04-20T23:05:08.811Z,6.03
2023-04-20T23:07:36.063Z,6.40
2023-04-20T23:10:02.871Z,4.93
2023-04-20T23:12:29.647Z,6.28
2023-04-20T23:14:56.925Z,7.15
2023-04-20T23:17:23.732Z,6.30
2023-04-20T23:19:50.998Z,6.00
2023-04-20T23:22:17.866Z,5.83
2023-04-20T23:24:44.484Z,5.38
2023-04-20T23:27:11.102Z,5.88
2023-04-20T23:29:37.871Z,5.95
2023-04-20T23:32:05.002Z,6.05
2023-04-20T23:34:31.771Z,6.40
2023-04-20T23:36:58.401Z,7.00
2023-04-20T23:39:25.012Z,5.90
2023-04-20T23:41:51.818Z,6.53
2023-04-20T23:44:18.459Z,6.95
2023-04-20T23:46:44.990Z,5.33
2023-04-20T23:49:11.594Z,5.55
2023-04-20T23:51:38.156Z,6.47
2023-04-20T23:54:04.918Z,6.93
2023-04-20T23:56:31.483Z,6.38
2023-04-20T23:58:59.138Z,7.13
